createdAt,value
2023-02-03T00:04:17.843Z,18.63
2023-02-03T00:09:20.757Z,17.98
2023-02-03T00:14:22.798Z,20.30
2023-02-03T00:19:24.785Z,17.40
2023-02-03T00:24:27.076Z,19.30
2023-02-03T00:29:29.130Z,18.27
2023-02-03T00:34:31.803Z,19.00
2023-02-03T00:39:37.062Z,19.83
2023-02-03T00:44:39.194Z,19.35
2023-02-03T00:49:41.581Z,20.00
2023-02-03T00:54:43.618Z,10.93
2023-02-03T00:59:45.634Z,16.10
2023-02-03T01:04:48.833Z,17.77
2023-02-03T01:09:50.917Z,17.52
2023-02-03T01:14:52.902Z,12.60
2023-02-03T01:19:54.912Z,17.10
2023-02-03T01:24:57.910Z,16.17
2023-02-03T01:30:00.090Z,17.83
2023-02-03T01:35:02.169Z,20.45
2023-02-03T01:40:05.086Z,21.17
2023-02-03T01:45:10.912Z,18.75
2023-02-03T01:50:23.022Z,19.52
2023-02-03T01:55:31.505Z,16.10
2023-02-03T02:00:33.506Z,16.20
2023-02-03T02:05:41.773Z,18.42
2023-02-03T02:10:45.611Z,17.75
2023-02-03T02:16:12.741Z,20.90
2023-02-03T02:21:32.724Z,22.00
2023-02-03T02:27:07.114Z,21.35
2023-02-03T02:32:09.125Z,20.58
2023-02-03T02:37:35.324Z,20.38
2023-02-03T02:43:06.559Z,21.58
2023-02-03T02:48:32.929Z,19.08
2023-02-03T02:53:42.823Z,19.10
2023-02-03T02:58:48.738Z,18.27
2023-02-03T03:03:52.224Z,21.67
2023-02-03T03:09:19.512Z,22.67
2023-02-03T03:14:25.249Z,21.05
2023-02-03T03:19:33.147Z,21.27
2023-02-03T03:24:43.940Z,20.13
2023-02-03T03:29:51.491Z,21.55
2023-02-03T03:34:54.358Z,21.23
2023-02-03T03:40:20.769Z,22.90
2023-02-03T03:45:35.852Z,21.70
2023-02-03T03:50:43.591Z,22.08
2023-02-03T03:55:50.442Z,20.63
2023-02-03T04:00:56.168Z,21.55
2023-02-03T04:05:58.287Z,18.40
2023-02-03T04:11:00.311Z,20.30
2023-02-03T04:16:02.391Z,20.27
2023-02-03T04:21:04.528Z,21.33
2023-02-03T04:26:06.486Z,18.55
2023-02-03T04:31:08.614Z,21.95
2023-02-03T04:36:10.651Z,18.60
2023-02-03T04:41:12.610Z,20.02
2023-02-03T04:46:14.748Z,16.42
2023-02-03T04:51:16.851Z,19.55
2023-02-03T04:56:18.847Z,18.92
2023-02-03T05:01:20.918Z,17.63
2023-02-03T05:06:29.036Z,20.00
2023-02-03T05:11:31.142Z,19.17
2023-02-03T05:16:34.314Z,19.63
2023-02-03T05:21:36.536Z,20.42
2023-02-03T05:26:38.550Z,20.35
2023-02-03T05:31:40.554Z,19.05
2023-02-03T05:36:42.628Z,18.92
2023-02-03T05:41:53.815Z,17.02
2023-02-03T05:51:59.573Z,18.45
2023-02-03T05:57:01.528Z,16.40
2023-02-03T06:02:03.538Z,17.83
2023-02-03T06:07:05.508Z,18.30
2023-02-03T06:12:07.681Z,17.67
2023-02-03T06:17:09.746Z,20.30
2023-02-03T06:22:11.715Z,18.85
2023-02-03T06:27:16.480Z,19.58
2023-02-03T06:32:18.648Z,18.65
2023-02-03T06:37:20.655Z,14.93
2023-02-03T06:42:22.861Z,19.77
2023-02-03T06:47:25.018Z,17.83
2023-02-03T06:52:27.100Z,19.25
2023-02-03T06:57:29.081Z,19.08
2023-02-03T07:02:31.199Z,19.17
2023-02-03T07:07:34.133Z,20.27
2023-02-03T07:12:36.886Z,20.40
2023-02-03T07:17:39.411Z,18.05
2023-02-03T07:22:43.961Z,17.98
2023-02-03T07:27:46.001Z,18.35
2023-02-03T07:32:51.954Z,17.25
2023-02-03T07:37:54.050Z,19.42
2023-02-03T07:42:56.129Z,16.60
2023-02-03T07:47:58.135Z,15.40
2023-02-03T07:58:03.429Z,16.40
2023-02-03T08:03:05.707Z,16.25
2023-02-03T08:08:07.799Z,17.75
2023-02-03T08:13:09.998Z,15.48
2023-02-03T08:18:12.800Z,17.13
2023-02-03T08:23:14.975Z,14.73
2023-02-03T08:28:18.180Z,16.08
2023-02-03T08:33:20.220Z,15.23
2023-02-03T08:38:22.291Z,12.80
2023-02-03T08:43:24.368Z,14.07
2023-02-03T08:48:26.464Z,14.52
2023-02-03T08:53:28.599Z,14.02
2023-02-03T08:58:30.622Z,14.63
2023-02-03T09:03:32.638Z,15.00
2023-02-03T09:08:34.940Z,15.57
2023-02-03T09:13:37.718Z,14.45
2023-02-03T09:18:40.256Z,14.77
2023-02-03T09:23:43.244Z,13.63
2023-02-03T09:28:45.372Z,14.48
2023-02-03T09:33:47.458Z,16.20
2023-02-03T09:38:49.546Z,15.80
2023-02-03T09:44:13.521Z,16.45
2023-02-03T09:49:21.643Z,13.93
2023-02-03T09:54:51.748Z,13.43
2023-02-03T09:59:56.489Z,13.00
2023-02-03T10:05:07.237Z,13.80
2023-02-03T10:10:20.791Z,10.48
2023-02-03T10:15:22.729Z,13.40
2023-02-03T10:20:29.314Z,13.65
2023-02-03T10:25:57.195Z,9.30
2023-02-03T10:31:02.065Z,13.38
2023-02-03T10:36:24.393Z,13.00
2023-02-03T10:41:30.009Z,10.75
2023-02-03T10:46:38.111Z,13.70
2023-02-03T10:51:52.411Z,14.55
2023-02-03T10:56:58.172Z,12.25
2023-02-03T11:02:00.482Z,9.60
2023-02-03T11:07:08.419Z,12.13
2023-02-03T11:12:16.824Z,11.07
2023-02-03T11:17:24.848Z,12.85
2023-02-03T11:22:37.112Z,10.20
2023-02-03T11:27:39.262Z,12.65
2023-02-03T11:32:43.276Z,12.55
2023-02-03T11:37:47.632Z,13.00
2023-02-03T11:42:49.652Z,13.60
2023-02-03T11:47:56.273Z,13.52
2023-02-03T11:53:21.325Z,13.35
2023-02-03T11:58:46.900Z,12.38
2023-02-03T12:04:00.959Z,13.05
2023-02-03T12:09:22.820Z,10.60
2023-02-03T12:14:46.568Z,9.90
2023-02-03T12:20:12.888Z,13.05
2023-02-03T12:25:37.098Z,10.60
2023-02-03T12:30:43.856Z,11.18
2023-02-03T12:35:52.889Z,11.80
2023-02-03T12:40:59.785Z,11.90
2023-02-03T12:46:13.464Z,9.93
2023-02-03T12:51:28.729Z,9.73
2023-02-03T12:56:40.355Z,8.32
2023-02-03T13:01:55.652Z,8.90
2023-02-03T13:07:03.280Z,9.48
2023-02-03T13:12:17.735Z,10.93
2023-02-03T13:17:26.651Z,6.78
2023-02-03T13:22:28.716Z,8.65
2023-02-03T13:27:48.683Z,8.90
2023-02-03T13:33:20.061Z,8.80
2023-02-03T13:38:40.361Z,9.67
2023-02-03T13:43:48.214Z,9.15
2023-02-03T13:48:52.130Z,9.50
2023-02-03T13:54:01.057Z,8.73
2023-02-03T13:59:07.435Z,10.00
2023-02-03T14:04:35.011Z,9.40
2023-02-03T14:09:38.352Z,10.55
2023-02-03T14:14:40.310Z,10.27
2023-02-03T14:19:51.557Z,11.82
2023-02-03T14:24:56.489Z,10.87
2023-02-03T14:30:09.571Z,10.55
2023-02-03T14:35:21.644Z,11.05
2023-02-03T14:40:37.899Z,11.18
2023-02-03T14:46:10.728Z,11.07
2023-02-03T14:51:24.895Z,10.73
2023-02-03T14:57:03.573Z,17.25
2023-02-03T15:02:05.542Z,12.80
2023-02-03T15:07:08.030Z,13.00
2023-02-03T15:12:23.322Z,12.80
2023-02-03T15:17:28.422Z,13.55
2023-02-03T15:22:30.945Z,12.73
2023-02-03T15:27:33.576Z,12.95
2023-02-03T15:32:41.373Z,13.52
2023-02-03T15:37:58.626Z,14.75
2023-02-03T15:43:23.422Z,13.05
2023-02-03T15:48:50.869Z,13.98
2023-02-03T15:53:59.222Z,13.38
2023-02-03T15:59:01.482Z,14.32
2023-02-03T16:04:11.637Z,11.50
2023-02-03T16:09:32.620Z,14.38
2023-02-03T16:14:36.792Z,13.90
2023-02-03T16:19:41.316Z,14.48
2023-02-03T16:24:45.756Z,13.93
2023-02-03T16:30:06.298Z,14.23
2023-02-03T16:35:29.422Z,14.27
2023-02-03T16:40:50.357Z,13.38
2023-02-03T16:46:14.359Z,13.73
2023-02-03T16:51:17.704Z,12.95
2023-02-03T16:56:19.703Z,12.93
2023-02-03T17:01:21.732Z,13.00
2023-02-03T17:06:24.049Z,11.45
2023-02-03T17:11:27.111Z,10.43
2023-02-03T17:16:29.402Z,10.65
2023-02-03T17:21:31.773Z,10.63
2023-02-03T17:26:34.456Z,11.30
2023-02-03T17:31:36.462Z,11.43
2023-02-03T17:36:38.550Z,4.47
2023-02-03T17:57:38.879Z,4.22
2023-02-03T18:02:42.657Z,5.03
2023-02-03T18:07:45.007Z,5.43
2023-02-03T18:12:47.033Z,6.28
2023-02-03T18:17:48.986Z,6.07
2023-02-03T18:22:51.006Z,6.32
2023-02-03T18:27:53.098Z,5.63
2023-02-03T18:32:55.353Z,5.97
2023-02-03T18:37:57.388Z,5.30
2023-02-03T18:42:59.376Z,5.13
2023-02-03T18:48:01.443Z,5.07
2023-02-03T18:53:03.502Z,4.00
2023-02-03T18:58:05.635Z,3.55
2023-02-03T19:03:08.018Z,3.88
2023-02-03T19:08:10.050Z,4.93
2023-02-03T19:13:12.038Z,6.72
2023-02-03T19:18:15.577Z,5.05
2023-02-03T19:23:17.594Z,5.32
2023-02-03T19:28:30.428Z,5.15
2023-02-03T19:33:33.105Z,5.47
2023-02-03T19:38:35.610Z,5.57
2023-02-03T19:43:37.605Z,6.55
2023-02-03T19:48:40.600Z,4.38
2023-02-03T19:53:42.701Z,6.50
2023-02-03T19:58:50.595Z,3.45
2023-02-03T20:03:52.565Z,2.92
2023-02-03T20:09:01.626Z,3.35
2023-02-03T20:14:05.097Z,2.92
2023-02-03T20:19:07.286Z,3.17
2023-02-03T20:24:09.266Z,3.50
2023-02-03T20:29:11.305Z,3.10
2023-02-03T20:34:13.315Z,2.75
2023-02-03T20:39:20.096Z,3.20
2023-02-03T20:44:22.162Z,3.30
2023-02-03T20:49:24.190Z,3.22
2023-02-03T20:54:26.246Z,3.35
2023-02-03T20:59:28.280Z,3.05
2023-02-03T21:04:48.681Z,3.67
2023-02-03T21:09:50.671Z,3.38
2023-02-03T21:14:55.065Z,3.53
2023-02-03T21:19:57.038Z,3.50
2023-02-03T21:25:01.144Z,3.80
2023-02-03T21:30:30.953Z,3.17
2023-02-03T21:35:37.826Z,3.65
2023-02-03T21:40:39.842Z,3.95
2023-02-03T21:45:43.326Z,3.25
2023-02-03T21:50:45.292Z,3.78
2023-02-03T21:55:47.372Z,3.70
2023-02-03T22:00:50.641Z,1.85
2023-02-03T22:06:04.536Z,3.08
2023-02-03T22:11:07.309Z,2.25
2023-02-03T22:16:09.763Z,2.72
2023-02-03T22:21:12.457Z,2.47
2023-02-03T22:26:15.730Z,2.88
2023-02-03T22:31:18.158Z,3.50
2023-02-03T22:36:22.222Z,3.13
2023-02-03T22:41:24.867Z,3.78
2023-02-03T22:46:26.930Z,3.38
2023-02-03T22:51:28.959Z,3.63
2023-02-03T22:56:30.978Z,3.55
2023-02-03T23:01:34.608Z,3.47
2023-02-03T23:06:36.632Z,3.10
2023-02-03T23:11:38.604Z,3.17
2023-02-03T23:16:40.612Z,3.70
2023-02-03T23:21:43.629Z,3.72
2023-02-03T23:26:45.591Z,3.33
2023-02-03T23:31:47.704Z,3.47
2023-02-03T23:36:49.738Z,4.10
2023-02-03T23:41:51.689Z,3.35
2023-02-03T23:46:53.706Z,4.07
2023-02-03T23:51:55.686Z,4.00
2023-02-03T23:56:57.648Z,3.70
